Time;durP1;ratioP1;P1;durP2;ratioP2;P2;SDS_P1;SDS_P2;PMS_P1;PMS_P2;Temp;Humidity;BMP_temperature;BMP_pressure;BME280_temperature;BME280_humidity;BME280_pressure;Samples;Min_cycle;Max_cycle;Signal;HPM_P1;HPM_P2
2023/08/08 00:01:53;;;;;;;2.07;1.87;;;14.90;99.90;;;;;;5082005;28;20978;-67
2023/08/08 00:04:19;;;;;;;3.33;3.03;;;14.90;99.90;;;;;;5081296;28;20184;-67
2023/08/08 00:06:45;;;;;;;2.53;2.10;;;14.90;99.90;;;;;;5062022;28;20204;-67
2023/08/08 00:09:10;;;;;;;3.13;2.30;;;14.90;99.90;;;;;;5081824;28;20339;-67
2023/08/08 00:11:36;;;;;;;5.20;1.90;;;14.90;99.90;;;;;;5082649;28;20571;-67
2023/08/08 00:14:02;;;;;;;4.93;2.20;;;14.90;99.90;;;;;;5082272;28;20177;-67
2023/08/08 00:16:28;;;;;;;2.70;2.40;;;14.80;99.90;;;;;;5081496;28;20185;-67
2023/08/08 00:18:53;;;;;;;2.40;2.20;;;14.80;99.90;;;;;;5082865;28;20499;-67
2023/08/08 00:21:22;;;;;;;2.27;2.00;;;14.80;99.90;;;;;;5081504;28;20316;-67
2023/08/08 00:23:48;;;;;;;4.50;2.40;;;14.80;99.90;;;;;;5064687;28;20188;-67
2023/08/08 00:26:13;;;;;;;3.20;2.43;;;14.80;99.90;;;;;;5081765;28;20912;-67
2023/08/08 00:28:39;;;;;;;2.30;1.97;;;14.80;99.90;;;;;;5082080;28;20251;-67
2023/08/08 00:31:05;;;;;;;3.43;2.40;;;14.80;99.90;;;;;;5083127;28;20181;-67
2023/08/08 00:33:30;;;;;;;1.90;1.80;;;14.80;99.90;;;;;;5082364;28;20258;-67
2023/08/08 00:35:56;;;;;;;5.20;2.33;;;14.80;99.90;;;;;;5082290;28;20188;-67
2023/08/08 00:38:22;;;;;;;2.20;2.00;;;14.80;99.90;;;;;;5081931;28;20176;-67
2023/08/08 00:40:48;;;;;;;3.17;2.20;;;14.80;99.90;;;;;;5082627;28;20757;-67
2023/08/08 00:43:13;;;;;;;3.30;2.60;;;14.80;99.90;;;;;;5082726;28;20812;-67
2023/08/08 00:45:42;;;;;;;4.37;1.90;;;14.80;99.90;;;;;;5081334;28;20215;-67
2023/08/08 00:48:08;;;;;;;3.83;2.47;;;14.90;99.90;;;;;;5082725;28;20188;-67
2023/08/08 00:50:35;;;;;;;3.27;2.60;;;14.80;99.90;;;;;;5081684;28;21160;-67
2023/08/08 00:53:02;;;;;;;2.40;2.20;;;14.70;99.90;;;;;;5071940;28;20473;-67
2023/08/08 00:55:28;;;;;;;3.03;2.20;;;14.70;99.90;;;;;;5042623;28;20469;-67
2023/08/08 00:57:54;;;;;;;2.67;2.00;;;14.70;99.90;;;;;;5062430;28;20424;-67
2023/08/08 01:00:19;;;;;;;2.70;2.50;;;14.70;99.90;;;;;;5061077;28;20173;-66
2023/08/08 01:02:45;;;;;;;2.30;2.10;;;14.70;99.90;;;;;;5062114;28;21075;-67
2023/08/08 01:05:11;;;;;;;4.43;2.60;;;14.70;99.90;;;;;;5061178;28;20173;-67
2023/08/08 01:08:03;;;;;;;2.50;2.10;;;14.70;99.90;;;;;;5061285;28;20185;-67
2023/08/08 01:10:33;;;;;;;3.30;2.30;;;14.70;99.90;;;;;;5061079;28;20416;-67
2023/08/08 01:13:04;;;;;;;2.90;2.13;;;14.80;99.90;;;;;;5062461;28;21209;-67
2023/08/08 01:15:35;;;;;;;3.50;2.30;;;14.80;99.90;;;;;;5060372;28;20449;-67
2023/08/08 01:18:06;;;;;;;3.57;2.93;;;14.80;99.90;;;;;;5062122;28;20428;-66
2023/08/08 01:20:33;;;;;;;4.33;2.73;;;14.80;99.90;;;;;;5061478;28;20443;-67
2023/08/08 01:23:26;;;;;;;4.00;2.30;;;14.80;99.90;;;;;;5062000;28;20436;-67
2023/08/08 01:25:52;;;;;;;5.07;2.60;;;14.90;99.90;;;;;;5060462;28;20444;-67
2023/08/08 01:28:24;;;;;;;4.00;2.47;;;14.80;99.90;;;;;;5043646;28;20511;-66
2023/08/08 01:30:51;;;;;;;3.07;2.30;;;14.80;99.90;;;;;;5079666;28;20423;-67
2023/08/08 01:33:17;;;;;;;3.50;2.33;;;14.80;99.90;;;;;;5081916;28;20419;-67
2023/08/08 01:35:47;;;;;;;3.03;2.53;;;14.80;99.90;;;;;;5080212;28;20978;-67
2023/08/08 01:38:16;;;;;;;3.70;2.20;;;14.70;99.90;;;;;;5082219;28;21133;-67
2023/08/08 01:40:44;;;;;;;2.60;2.10;;;14.60;99.90;;;;;;5080057;28;20462;-67
2023/08/08 01:43:10;;;;;;;5.80;2.57;;;14.60;99.90;;;;;;5081860;28;20461;-67
2023/08/08 01:45:37;;;;;;;3.87;2.27;;;14.60;99.90;;;;;;5079991;28;20430;-68
2023/08/08 01:48:10;;;;;;;3.20;2.57;;;14.60;99.90;;;;;;5081388;28;20426;-67
2023/08/08 01:50:37;;;;;;;3.57;2.27;;;14.60;99.90;;;;;;5062987;28;20828;-67
2023/08/08 01:53:03;;;;;;;2.17;1.93;;;14.70;99.90;;;;;;5070735;28;20625;-67
2023/08/08 01:55:30;;;;;;;2.90;2.60;;;14.70;99.90;;;;;;5059983;28;20485;-67
2023/08/08 01:57:55;;;;;;;3.63;2.47;;;14.70;99.90;;;;;;5061302;28;20730;-68
2023/08/08 02:00:21;;;;;;;4.73;2.50;;;14.70;99.90;;;;;;5061516;28;20412;-68
2023/08/08 02:02:47;;;;;;;4.27;2.40;;;14.70;99.90;;;;;;5060857;28;20837;-67
2023/08/08 02:05:13;;;;;;;2.83;2.20;;;14.70;99.90;;;;;;5060405;28;20928;-67
2023/08/08 02:07:39;;;;;;;4.83;2.10;;;14.70;99.90;;;;;;5060501;28;20731;-68
2023/08/08 02:10:05;;;;;;;2.70;2.50;;;14.60;99.90;;;;;;5060841;28;20643;-68
2023/08/08 02:12:31;;;;;;;2.70;2.47;;;14.70;99.90;;;;;;5059454;28;20177;-68
2023/08/08 02:14:57;;;;;;;4.17;2.40;;;14.70;99.90;;;;;;5060014;28;20476;-67
2023/08/08 02:17:24;;;;;;;5.87;2.90;;;14.60;99.90;;;;;;5061017;28;20294;-67
2023/08/08 02:19:50;;;;;;;7.10;2.87;;;14.60;99.90;;;;;;5060772;28;20447;-67
2023/08/08 02:22:17;;;;;;;7.30;2.50;;;14.60;99.90;;;;;;5060580;28;20562;-67
2023/08/08 02:24:43;;;;;;;3.80;2.60;;;14.70;99.90;;;;;;5059734;28;20184;-67
2023/08/08 02:27:09;;;;;;;4.80;2.40;;;14.60;99.90;;;;;;5060580;28;20419;-68
2023/08/08 02:29:35;;;;;;;3.67;2.13;;;14.60;99.90;;;;;;5050401;28;20440;-67
2023/08/08 02:32:00;;;;;;;3.30;2.23;;;14.60;99.90;;;;;;5080817;28;20809;-68
2023/08/08 02:34:26;;;;;;;2.50;2.30;;;14.60;99.90;;;;;;5080327;28;20259;-68
2023/08/08 02:36:52;;;;;;;4.43;2.37;;;14.60;99.90;;;;;;5079851;28;20679;-68
2023/08/08 02:39:17;;;;;;;2.73;2.50;;;14.60;99.90;;;;;;5080847;28;20229;-68
2023/08/08 02:41:43;;;;;;;3.40;2.37;;;14.50;99.90;;;;;;5080370;28;21051;-68
2023/08/08 02:44:10;;;;;;;7.40;2.47;;;14.60;99.90;;;;;;5080765;28;20887;-67
2023/08/08 02:46:37;;;;;;;3.40;2.50;;;14.60;99.90;;;;;;5080471;28;20184;-68
2023/08/08 02:49:04;;;;;;;7.33;3.77;;;14.60;99.90;;;;;;5080634;28;20442;-67
2023/08/08 02:51:30;;;;;;;3.80;2.50;;;14.50;99.90;;;;;;5081970;28;20487;-67
2023/08/08 02:53:56;;;;;;;4.93;2.77;;;14.60;99.90;;;;;;5065262;28;20931;-68
2023/08/08 02:56:21;;;;;;;4.50;2.70;;;14.60;99.90;;;;;;5063839;28;20177;-67
2023/08/08 02:58:47;;;;;;;4.50;2.60;;;14.60;99.90;;;;;;5063069;28;20918;-67
2023/08/08 03:01:14;;;;;;;3.63;2.37;;;14.50;99.90;;;;;;5064395;28;20196;-67
2023/08/08 03:03:41;;;;;;;3.20;2.70;;;14.60;99.90;;;;;;5063640;28;20177;-67
2023/08/08 03:06:06;;;;;;;5.60;3.13;;;14.60;99.90;;;;;;5063820;28;20423;-68
2023/08/08 03:08:32;;;;;;;4.70;3.10;;;14.60;99.90;;;;;;5064347;28;20419;-67
2023/08/08 03:10:58;;;;;;;3.27;2.90;;;14.60;99.90;;;;;;5062474;28;20264;-68
2023/08/08 03:13:23;;;;;;;2.67;2.23;;;14.60;99.90;;;;;;5064570;28;20199;-68
2023/08/08 03:15:49;;;;;;;6.03;3.00;;;14.60;99.90;;;;;;5062442;28;20225;-68
2023/08/08 03:18:15;;;;;;;2.63;2.43;;;14.60;99.90;;;;;;5064314;28;20181;-68
2023/08/08 03:20:40;;;;;;;4.43;3.00;;;14.60;99.90;;;;;;5063475;28;20265;-67
2023/08/08 03:23:06;;;;;;;4.60;3.10;;;14.60;99.90;;;;;;5063980;28;20180;-68
2023/08/08 03:25:32;;;;;;;2.57;2.37;;;14.60;99.90;;;;;;5063065;28;20173;-68
2023/08/08 03:27:57;;;;;;;3.60;2.87;;;14.60;99.90;;;;;;5063483;28;20635;-67
2023/08/08 03:30:23;;;;;;;4.13;2.60;;;14.50;99.90;;;;;;5078616;28;20188;-68
2023/08/08 03:32:49;;;;;;;6.57;3.00;;;14.60;99.90;;;;;;5083337;28;20238;-67
2023/08/08 03:35:15;;;;;;;4.87;3.00;;;14.50;99.90;;;;;;5083050;28;20253;-68
2023/08/08 03:37:41;;;;;;;5.97;3.20;;;14.50;99.90;;;;;;5083754;28;20212;-67
2023/08/08 03:40:07;;;;;;;4.53;3.07;;;14.50;99.90;;;;;;5083656;28;20823;-68
2023/08/08 03:42:33;;;;;;;4.20;2.87;;;14.50;99.90;;;;;;5083938;28;20569;-67
2023/08/08 03:44:59;;;;;;;5.90;2.90;;;14.40;99.90;;;;;;5082136;28;20417;-67
2023/08/08 03:47:25;;;;;;;6.73;3.90;;;14.40;99.90;;;;;;5083632;28;20189;-68
2023/08/08 03:49:54;;;;;;;5.73;3.43;;;14.30;99.90;;;;;;5083358;28;20786;-67
2023/08/08 03:52:21;;;;;;;4.90;3.40;;;14.30;99.90;;;;;;5078733;28;20506;-68
2023/08/08 03:54:46;;;;;;;4.50;4.00;;;14.20;99.90;;;;;;5062302;28;20827;-68
2023/08/08 03:57:12;;;;;;;3.90;2.83;;;14.20;99.90;;;;;;5063295;28;20493;-68
2023/08/08 03:59:38;;;;;;;8.60;3.33;;;14.20;99.90;;;;;;5062451;28;20512;-67
2023/08/08 04:02:04;;;;;;;3.90;3.40;;;14.20;99.90;;;;;;5062444;28;20212;-68
2023/08/08 04:04:29;;;;;;;4.20;3.40;;;14.20;99.90;;;;;;5061991;28;20213;-68
2023/08/08 04:06:55;;;;;;;5.00;3.37;;;14.20;99.90;;;;;;5062220;28;20291;-67
2023/08/08 04:09:21;;;;;;;3.83;3.40;;;14.20;99.90;;;;;;5063399;28;20208;-68
2023/08/08 04:11:47;;;;;;;5.20;3.77;;;14.20;99.90;;;;;;5062074;28;20238;-68
2023/08/08 04:14:12;;;;;;;4.37;3.70;;;14.20;99.90;;;;;;5061613;28;20185;-68
2023/08/08 04:16:39;;;;;;;6.80;3.80;;;14.20;99.90;;;;;;5063677;28;20174;-68
2023/08/08 04:19:05;;;;;;;4.73;3.77;;;14.10;99.90;;;;;;5062157;28;20173;-68
2023/08/08 04:21:32;;;;;;;6.90;3.77;;;14.20;99.90;;;;;;5063096;28;20795;-67
2023/08/08 04:23:58;;;;;;;5.80;3.63;;;14.10;99.90;;;;;;5062114;28;20179;-68
2023/08/08 04:26:24;;;;;;;8.43;3.80;;;14.10;99.90;;;;;;5062039;28;20928;-68
2023/08/08 04:28:49;;;;;;;5.90;4.07;;;14.00;99.90;;;;;;5064665;28;20420;-68
2023/08/08 04:31:15;;;;;;;6.37;3.60;;;14.10;99.90;;;;;;5082175;28;20183;-68
2023/08/08 04:33:41;;;;;;;6.30;4.10;;;14.00;99.90;;;;;;5082912;28;20199;-68
2023/08/08 04:36:06;;;;;;;7.00;4.57;;;14.00;99.90;;;;;;5081989;28;20185;-68
2023/08/08 04:38:32;;;;;;;5.83;4.10;;;13.90;99.90;;;;;;5082624;28;20208;-68
2023/08/08 04:40:58;;;;;;;8.37;4.20;;;13.90;99.90;;;;;;5082355;28;20192;-67
2023/08/08 04:43:23;;;;;;;4.80;4.33;;;13.80;99.90;;;;;;5082083;28;20964;-68
2023/08/08 04:45:50;;;;;;;4.80;4.00;;;13.80;99.90;;;;;;5081854;28;20175;-67
2023/08/08 04:48:16;;;;;;;10.03;4.40;;;13.80;99.90;;;;;;5081824;28;20184;-68
2023/08/08 04:50:41;;;;;;;7.70;4.80;;;13.90;99.90;;;;;;5064408;28;20491;-68
2023/08/08 04:53:07;;;;;;;7.87;5.33;;;13.90;99.90;;;;;;5070441;28;20196;-68
2023/08/08 04:55:33;;;;;;;5.77;5.10;;;13.90;99.90;;;;;;5060841;28;20177;-68
2023/08/08 04:57:58;;;;;;;10.27;6.60;;;14.00;99.90;;;;;;5062404;28;20173;-68
2023/08/08 05:00:26;;;;;;;8.20;5.73;;;14.00;99.90;;;;;;5060886;28;20819;-67
2023/08/08 05:02:52;;;;;;;7.73;6.37;;;13.90;99.90;;;;;;5062040;28;20177;-68
2023/08/08 05:05:17;;;;;;;10.70;6.17;;;14.00;99.90;;;;;;5042475;28;20466;-68
2023/08/08 05:07:43;;;;;;;9.57;6.53;;;13.90;99.90;;;;;;5061768;28;20235;-68
2023/08/08 05:10:09;;;;;;;9.80;7.47;;;13.90;99.90;;;;;;5061551;28;20185;-67
2023/08/08 05:12:34;;;;;;;7.90;5.67;;;13.90;99.90;;;;;;5064818;28;20207;-67
2023/08/08 05:15:00;;;;;;;9.23;7.60;;;13.90;99.90;;;;;;5068231;28;20422;-67
2023/08/08 05:17:26;;;;;;;9.90;7.20;;;13.90;99.90;;;;;;5061294;28;21005;-67
2023/08/08 05:19:52;;;;;;;9.67;7.60;;;14.00;99.90;;;;;;5070861;28;20176;-68
2023/08/08 05:22:17;;;;;;;7.30;6.47;;;13.90;99.90;;;;;;5071539;28;20226;-69
2023/08/08 05:24:43;;;;;;;11.63;8.10;;;14.00;99.90;;;;;;5070018;28;20180;-68
2023/08/08 05:27:09;;;;;;;11.20;8.03;;;14.00;99.90;;;;;;5072425;28;20264;-68
2023/08/08 05:29:37;;;;;;;16.07;8.83;;;14.00;99.90;;;;;;5075402;28;20193;-68
2023/08/08 05:32:06;;;;;;;9.57;7.77;;;14.10;99.90;;;;;;5081158;28;20431;-68
2023/08/08 05:34:32;;;;;;;15.73;9.07;;;14.10;99.90;;;;;;5072010;28;20418;-68
2023/08/08 05:36:58;;;;;;;9.10;8.20;;;14.00;99.90;;;;;;5081380;28;20422;-68
2023/08/08 05:39:24;;;;;;;15.00;9.87;;;14.10;99.90;;;;;;5073858;28;20431;-68
2023/08/08 05:41:50;;;;;;;9.80;8.80;;;14.00;99.90;;;;;;5073015;28;20261;-68
2023/08/08 05:44:15;;;;;;;12.50;8.83;;;13.90;99.90;;;;;;5069887;28;20434;-68
2023/08/08 05:46:41;;;;;;;12.47;9.10;;;14.00;99.90;;;;;;5068035;28;20663;-68
2023/08/08 05:49:07;;;;;;;12.77;8.93;;;14.00;99.90;;;;;;5069731;28;20236;-68
2023/08/08 05:51:32;;;;;;;12.00;9.73;;;14.10;99.90;;;;;;5060638;28;20209;-68
2023/08/08 05:53:58;;;;;;;12.40;9.73;;;14.10;99.90;;;;;;5079969;28;20206;-68
2023/08/08 05:56:24;;;;;;;10.70;9.60;;;14.20;99.90;;;;;;5079894;28;20191;-68
2023/08/08 05:58:49;;;;;;;11.97;10.00;;;14.20;99.90;;;;;;5071055;28;20189;-68
2023/08/08 06:01:15;;;;;;;13.20;9.37;;;14.20;99.90;;;;;;5063316;28;20208;-68
2023/08/08 06:03:42;;;;;;;14.00;10.30;;;14.20;99.90;;;;;;5060418;28;20215;-68
2023/08/08 06:06:08;;;;;;;10.80;9.70;;;14.20;99.90;;;;;;5065876;28;20550;-68
2023/08/08 06:08:34;;;;;;;14.43;10.57;;;14.20;99.90;;;;;;5070146;28;20437;-69
2023/08/08 06:10:59;;;;;;;12.90;9.87;;;14.20;99.90;;;;;;5071905;28;20177;-68
2023/08/08 06:13:25;;;;;;;13.43;10.33;;;14.30;99.90;;;;;;5070746;28;20483;-68
2023/08/08 06:15:51;;;;;;;12.60;9.47;;;14.30;99.90;;;;;;5062142;28;20231;-68
2023/08/08 06:18:17;;;;;;;11.90;10.00;;;14.40;99.90;;;;;;5060806;28;20180;-68
2023/08/08 06:20:43;;;;;;;12.13;10.60;;;14.40;99.90;;;;;;5060581;28;20209;-68
2023/08/08 06:23:08;;;;;;;15.03;11.30;;;14.30;99.90;;;;;;5059913;28;20438;-68
2023/08/08 06:25:34;;;;;;;15.67;11.10;;;14.30;99.90;;;;;;5069686;28;20187;-69
2023/08/08 06:28:00;;;;;;;15.23;10.13;;;14.20;99.90;;;;;;5080677;28;20189;-68
2023/08/08 06:30:26;;;;;;;14.23;11.20;;;14.20;99.90;;;;;;5077111;28;20187;-68
2023/08/08 06:32:51;;;;;;;20.03;11.63;;;14.30;99.90;;;;;;5078512;28;20173;-68
2023/08/08 06:35:18;;;;;;;17.70;11.97;;;14.30;99.90;;;;;;5075593;28;20176;-68
2023/08/08 06:37:44;;;;;;;13.27;11.90;;;14.30;99.90;;;;;;5073373;28;20197;-68
2023/08/08 06:40:11;;;;;;;13.40;11.30;;;14.30;99.90;;;;;;5078644;28;20428;-68
2023/08/08 06:42:36;;;;;;;13.20;10.70;;;14.40;99.90;;;;;;5087636;28;21354;-68
2023/08/08 06:45:02;;;;;;;13.60;11.13;;;14.50;99.90;;;;;;5082855;28;20426;-69
2023/08/08 06:47:28;;;;;;;15.77;12.00;;;14.50;99.90;;;;;;5076446;28;20717;-68
2023/08/08 06:49:54;;;;;;;12.63;11.30;;;14.60;99.90;;;;;;5078345;28;20199;-69
2023/08/08 06:52:21;;;;;;;13.70;10.43;;;14.60;99.90;;;;;;5077256;28;20894;-69
2023/08/08 06:54:47;;;;;;;15.87;10.17;;;14.60;99.90;;;;;;5081813;28;20427;-69
2023/08/08 06:57:13;;;;;;;13.43;11.27;;;14.60;99.90;;;;;;5084298;28;20418;-69
2023/08/08 06:59:39;;;;;;;14.30;11.50;;;14.60;99.90;;;;;;5086294;28;20183;-69
2023/08/08 07:02:05;;;;;;;18.20;11.90;;;14.60;99.90;;;;;;5086418;28;20208;-69
2023/08/08 07:04:31;;;;;;;17.53;12.40;;;14.60;99.90;;;;;;5080151;28;20939;-69
2023/08/08 07:06:56;;;;;;;14.73;12.63;;;14.60;99.90;;;;;;5083756;28;20501;-69
2023/08/08 07:09:22;;;;;;;14.93;11.97;;;14.60;99.90;;;;;;5087605;28;20168;-69
2023/08/08 07:11:48;;;;;;;15.67;12.47;;;14.60;99.90;;;;;;5088044;28;20322;-68
2023/08/08 07:14:15;;;;;;;17.10;12.33;;;14.70;99.90;;;;;;5089373;28;20232;-69
2023/08/08 07:16:40;;;;;;;16.50;12.53;;;14.70;99.90;;;;;;5088732;28;20530;-68
2023/08/08 07:19:06;;;;;;;16.43;13.20;;;14.80;99.90;;;;;;5090887;28;20177;-69
2023/08/08 07:21:31;;;;;;;18.50;12.87;;;14.80;99.90;;;;;;5089690;28;20211;-68
2023/08/08 07:23:57;;;;;;;22.13;13.63;;;14.70;99.90;;;;;;5089459;28;20506;-69
2023/08/08 07:26:23;;;;;;;18.03;12.30;;;14.70;99.90;;;;;;5088579;28;20176;-69
2023/08/08 07:28:49;;;;;;;15.60;11.20;;;14.90;99.90;;;;;;5087327;28;20184;-68
2023/08/08 07:31:14;;;;;;;13.50;11.70;;;15.00;99.90;;;;;;5069082;28;20185;-69
2023/08/08 07:33:40;;;;;;;15.97;12.60;;;15.10;99.90;;;;;;5068457;28;20173;-68
2023/08/08 07:36:06;;;;;;;12.53;11.23;;;15.10;99.90;;;;;;5068668;28;20181;-69
2023/08/08 07:38:33;;;;;;;18.10;11.57;;;15.10;99.90;;;;;;5065843;28;20177;-69
2023/08/08 07:40:58;;;;;;;14.13;11.13;;;15.20;99.90;;;;;;5065795;28;20307;-69
2023/08/08 07:43:24;;;;;;;12.77;10.43;;;15.30;99.90;;;;;;5065955;28;21049;-69
2023/08/08 07:45:50;;;;;;;14.60;11.90;;;15.40;99.90;;;;;;5064310;28;20611;-69
2023/08/08 07:48:15;;;;;;;14.73;10.60;;;15.60;99.90;;;;;;5065518;28;20192;-69
2023/08/08 07:50:41;;;;;;;16.00;10.17;;;15.70;99.90;;;;;;5065060;28;20572;-69
2023/08/08 07:53:07;;;;;;;12.67;10.03;;;15.90;99.90;;;;;;5083963;28;20195;-69
2023/08/08 07:55:33;;;;;;;13.87;10.20;;;15.90;99.90;;;;;;5085076;28;20954;-69
2023/08/08 07:57:58;;;;;;;12.93;9.50;;;15.90;99.90;;;;;;5085984;28;20411;-69
2023/08/08 08:00:24;;;;;;;11.50;9.10;;;16.00;99.90;;;;;;5084979;28;20184;-69
2023/08/08 08:02:50;;;;;;;9.27;8.00;;;16.00;99.90;;;;;;5084697;28;20185;-68
2023/08/08 08:05:15;;;;;;;14.17;9.70;;;16.10;99.90;;;;;;5084571;28;20835;-69
2023/08/08 08:07:41;;;;;;;12.30;8.60;;;16.10;99.90;;;;;;5082615;28;20657;-69
2023/08/08 08:10:09;;;;;;;10.23;8.30;;;16.20;99.90;;;;;;5083538;28;20180;-69
2023/08/08 08:12:36;;;;;;;10.57;8.33;;;16.20;99.90;;;;;;5083697;28;20657;-69
2023/08/08 08:15:02;;;;;;;10.03;7.63;;;16.30;99.90;;;;;;5084336;28;20480;-69
2023/08/08 08:17:28;;;;;;;11.30;7.53;;;16.30;99.90;;;;;;5085625;28;20414;-69
2023/08/08 08:19:54;;;;;;;8.43;6.83;;;16.40;99.90;;;;;;5085066;28;20940;-69
2023/08/08 08:22:20;;;;;;;9.87;7.07;;;16.40;99.90;;;;;;5085727;28;20231;-69
2023/08/08 08:24:46;;;;;;;8.70;7.80;;;16.50;99.90;;;;;;5084051;28;20423;-69
2023/08/08 08:27:12;;;;;;;11.30;6.70;;;16.60;99.90;;;;;;5085495;28;20251;-69
2023/08/08 08:29:38;;;;;;;7.00;6.30;;;16.60;99.90;;;;;;5076609;28;20680;-69
2023/08/08 08:32:04;;;;;;;13.23;7.17;;;16.70;99.90;;;;;;5064645;28;21132;-69
2023/08/08 08:34:30;;;;;;;9.30;6.70;;;16.60;99.90;;;;;;5064471;28;20431;-69
2023/08/08 08:36:56;;;;;;;15.60;7.23;;;16.60;99.90;;;;;;5063898;28;20180;-69
2023/08/08 08:39:22;;;;;;;11.63;7.00;;;16.60;99.90;;;;;;5065419;28;20779;-69
2023/08/08 08:41:54;;;;;;;6.40;5.80;;;16.70;99.90;;;;;;5064453;28;20205;-68
2023/08/08 08:44:21;;;;;;;9.50;6.53;;;16.70;99.90;;;;;;5064533;28;20411;-68
2023/08/08 08:46:50;;;;;;;8.07;5.33;;;16.60;99.90;;;;;;5063554;28;20498;-68
2023/08/08 08:49:18;;;;;;;9.13;5.30;;;16.60;99.90;;;;;;5064752;28;20434;-67
2023/08/08 08:51:44;;;;;;;7.57;4.80;;;16.70;99.90;;;;;;5064449;28;20514;-68
2023/08/08 08:54:11;;;;;;;5.27;4.77;;;16.70;99.90;;;;;;5083514;28;20452;-68
2023/08/08 08:56:37;;;;;;;6.53;5.13;;;16.70;99.90;;;;;;5085229;28;20438;-68
2023/08/08 08:59:03;;;;;;;5.60;4.93;;;16.90;99.90;;;;;;5084196;28;20422;-68
2023/08/08 09:01:29;;;;;;;6.53;4.70;;;17.00;99.90;;;;;;5084695;28;20560;-68
2023/08/08 09:03:55;;;;;;;6.60;4.30;;;17.10;99.90;;;;;;5082415;28;20422;-69
2023/08/08 09:06:23;;;;;;;5.40;4.90;;;17.10;99.90;;;;;;5081953;28;20419;-68
2023/08/08 09:08:49;;;;;;;6.47;4.90;;;17.20;99.90;;;;;;5082044;28;20570;-68
2023/08/08 09:11:14;;;;;;;5.70;4.43;;;17.30;99.90;;;;;;5081931;28;20546;-69
2023/08/08 09:13:40;;;;;;;8.03;4.33;;;17.30;99.90;;;;;;5063536;28;20634;-68
2023/08/08 09:16:08;;;;;;;10.97;5.77;;;17.30;99.90;;;;;;5080617;28;20207;-68
2023/08/08 09:18:34;;;;;;;6.90;4.50;;;17.40;99.90;;;;;;5082402;28;20422;-68
2023/08/08 09:21:00;;;;;;;6.43;4.17;;;17.50;99.90;;;;;;5080907;28;20543;-68
2023/08/08 09:23:26;;;;;;;4.00;3.60;;;17.50;99.90;;;;;;5082261;28;20414;-68
2023/08/08 09:25:52;;;;;;;5.47;4.97;;;17.50;99.90;;;;;;5080720;28;20415;-69
2023/08/08 09:28:18;;;;;;;6.20;3.90;;;17.60;99.90;;;;;;5063298;28;20194;-68
2023/08/08 09:30:44;;;;;;;6.90;4.53;;;17.80;99.90;;;;;;5081737;28;20671;-68
2023/08/08 09:33:11;;;;;;;5.47;3.70;;;17.90;99.90;;;;;;5080883;28;20419;-68
2023/08/08 09:35:39;;;;;;;5.03;4.03;;;18.10;99.90;;;;;;5062816;28;20450;-69
2023/08/08 09:38:05;;;;;;;7.20;3.60;;;18.20;99.90;;;;;;5080896;28;20425;-68
2023/08/08 09:40:31;;;;;;;7.90;3.70;;;18.20;99.90;;;;;;5081611;28;20422;-68
2023/08/08 09:42:57;;;;;;;5.00;3.70;;;18.10;99.90;;;;;;5081402;28;20418;-68
2023/08/08 09:45:23;;;;;;;5.37;3.30;;;18.00;99.90;;;;;;5080347;28;20788;-68
2023/08/08 09:47:52;;;;;;;6.93;4.40;;;17.90;99.90;;;;;;5081413;28;20438;-68
2023/08/08 09:50:18;;;;;;;5.70;3.67;;;18.00;99.90;;;;;;5080842;28;20475;-68
2023/08/08 09:52:45;;;;;;;4.40;3.63;;;18.00;99.90;;;;;;5073214;28;20572;-68
2023/08/08 09:55:11;;;;;;;6.93;3.57;;;18.00;99.90;;;;;;5059359;28;20437;-68
2023/08/08 09:57:39;;;;;;;5.40;3.03;;;18.00;99.90;;;;;;5060999;28;20424;-68
2023/08/08 10:00:10;;;;;;;6.33;3.30;;;17.90;99.90;;;;;;5059178;28;20431;-68
2023/08/08 10:02:36;;;;;;;5.50;3.87;;;18.00;99.90;;;;;;5059623;28;20490;-68
2023/08/08 10:05:04;;;;;;;4.07;3.10;;;18.10;99.90;;;;;;5059525;28;20798;-68
2023/08/08 10:07:30;;;;;;;5.90;3.87;;;18.20;99.90;;;;;;5061175;28;20205;-68
2023/08/08 10:09:56;;;;;;;5.30;3.87;;;18.30;99.90;;;;;;5061320;28;20526;-68
2023/08/08 10:12:25;;;;;;;4.33;3.80;;;18.20;99.90;;;;;;5060085;28;20472;-68
2023/08/08 10:14:51;;;;;;;7.73;4.27;;;18.10;99.90;;;;;;5060338;28;20424;-68
2023/08/08 10:17:18;;;;;;;5.40;4.17;;;18.20;99.90;;;;;;5059924;28;20431;-68
2023/08/08 10:19:57;;;;;;;7.50;4.03;;;18.40;99.90;;;;;;5061196;28;20423;-68
2023/08/08 10:22:24;;;;;;;4.10;3.53;;;18.70;99.90;;;;;;5060758;28;20471;-68
2023/08/08 10:24:55;;;;;;;6.00;3.23;;;18.90;99.90;;;;;;5060196;28;20416;-68
2023/08/08 10:27:35;;;;;;;7.73;3.67;;;19.00;99.90;;;;;;5061430;28;20477;-68
2023/08/08 10:30:07;;;;;;;6.13;4.47;;;19.20;99.90;;;;;;5072318;28;20999;-68
2023/08/08 10:32:50;;;;;;;7.60;4.37;;;19.20;99.90;;;;;;5073450;28;20450;-68
2023/08/08 10:35:16;;;;;;;4.50;3.57;;;19.30;99.90;;;;;;5074964;28;20668;-68
2023/08/08 10:37:53;;;;;;;5.53;4.07;;;19.40;99.90;;;;;;5079362;28;20419;-68
2023/08/08 10:40:19;;;;;;;3.73;3.40;;;19.50;99.90;;;;;;5080210;28;20791;-68
2023/08/08 10:42:47;;;;;;;7.07;3.27;;;19.60;99.90;;;;;;5080213;28;20829;-68
2023/08/08 10:45:14;;;;;;;6.30;3.20;;;19.50;99.90;;;;;;5078763;28;20444;-68
2023/08/08 10:47:41;;;;;;;8.17;3.47;;;19.30;99.90;;;;;;5079970;28;20449;-68
2023/08/08 10:50:09;;;;;;;4.63;3.33;;;19.00;99.90;;;;;;5080406;28;20465;-68
2023/08/08 10:52:55;;;;;;;4.63;3.13;;;18.70;99.90;;;;;;5076819;28;20537;-68
2023/08/08 10:55:30;;;;;;;4.53;2.73;;;18.50;99.90;;;;;;5049072;28;20422;-68
2023/08/08 10:57:58;;;;;;;4.73;3.33;;;18.40;99.90;;;;;;5068046;28;20487;-68
2023/08/08 11:00:27;;;;;;;3.70;3.40;;;18.30;99.90;;;;;;5078148;28;20449;-68
2023/08/08 11:02:55;;;;;;;5.57;2.73;;;18.30;99.90;;;;;;5078901;28;20489;-68
2023/08/08 11:05:22;;;;;;;4.57;3.50;;;18.20;99.90;;;;;;5079791;28;20505;-68
2023/08/08 11:07:48;;;;;;;4.10;3.27;;;18.10;99.90;;;;;;5080121;28;21040;-68
2023/08/08 11:10:14;;;;;;;6.83;3.43;;;18.00;99.90;;;;;;5079477;28;21066;-68
2023/08/08 11:12:40;;;;;;;4.07;3.40;;;17.90;99.90;;;;;;5081727;28;20431;-68
2023/08/08 11:15:06;;;;;;;4.17;3.10;;;17.80;99.90;;;;;;5083141;28;20181;-68
2023/08/08 11:17:32;;;;;;;3.90;3.07;;;17.80;99.90;;;;;;5083349;28;20230;-68
2023/08/08 11:19:58;;;;;;;6.07;3.20;;;18.00;99.90;;;;;;5084160;28;20421;-68
2023/08/08 11:22:24;;;;;;;6.73;3.10;;;18.20;99.90;;;;;;5082741;28;20211;-68
2023/08/08 11:24:50;;;;;;;11.37;3.50;;;18.20;99.90;;;;;;5083041;28;20239;-68
2023/08/08 11:27:16;;;;;;;5.07;3.40;;;18.30;99.90;;;;;;5083009;28;20966;-68
2023/08/08 11:29:50;;;;;;;3.93;3.07;;;18.30;99.90;;;;;;5052556;28;20526;-68
2023/08/08 11:32:16;;;;;;;4.47;2.87;;;18.20;99.90;;;;;;5080624;28;20192;-68
2023/08/08 11:34:41;;;;;;;4.37;2.77;;;18.10;99.90;;;;;;5075163;28;21047;-68
2023/08/08 11:37:08;;;;;;;4.17;3.50;;;18.10;99.90;;;;;;5083262;28;20184;-68
2023/08/08 11:39:34;;;;;;;9.47;3.20;;;18.00;99.90;;;;;;5083055;28;20187;-68
2023/08/08 11:42:01;;;;;;;4.20;3.10;;;18.00;99.90;;;;;;5083211;28;20833;-68
2023/08/08 11:44:26;;;;;;;6.23;3.30;;;18.00;99.90;;;;;;5081629;28;20450;-68
2023/08/08 11:46:52;;;;;;;3.73;3.00;;;17.90;99.90;;;;;;5082812;28;20415;-68
2023/08/08 11:49:18;;;;;;;4.60;2.87;;;17.70;99.90;;;;;;5083179;28;20184;-68
2023/08/08 11:51:45;;;;;;;3.27;2.90;;;17.60;99.90;;;;;;5082782;28;20682;-69
2023/08/08 11:54:11;;;;;;;5.20;2.70;;;17.80;99.90;;;;;;5081447;28;20191;-68
2023/08/08 11:56:37;;;;;;;3.60;3.10;;;18.00;99.90;;;;;;5081573;28;20422;-68
2023/08/08 11:59:04;;;;;;;5.33;3.70;;;18.10;99.90;;;;;;5082982;28;20204;-68
2023/08/08 12:01:32;;;;;;;5.10;3.33;;;18.30;99.90;;;;;;5081942;28;21195;-68
2023/08/08 12:03:58;;;;;;;8.83;4.03;;;18.40;99.90;;;;;;5082451;28;20427;-68
2023/08/08 12:06:28;;;;;;;8.30;3.60;;;18.40;99.90;;;;;;5078376;28;20941;-68
2023/08/08 12:08:54;;;;;;;5.03;3.27;;;18.50;99.90;;;;;;5076633;28;20184;-68
2023/08/08 12:11:20;;;;;;;6.13;2.87;;;18.50;99.90;;;;;;5082902;28;20415;-68
2023/08/08 12:13:46;;;;;;;5.93;3.60;;;18.70;99.90;;;;;;5081693;28;20483;-68
2023/08/08 12:16:13;;;;;;;5.97;3.60;;;18.80;99.90;;;;;;5082822;28;20677;-68
2023/08/08 12:18:40;;;;;;;4.07;3.20;;;18.80;99.90;;;;;;5081735;28;20449;-68
2023/08/08 12:21:08;;;;;;;5.90;3.80;;;18.90;99.90;;;;;;5062406;28;20461;-68
2023/08/08 12:23:34;;;;;;;6.47;3.10;;;18.90;99.90;;;;;;5081125;28;20426;-68
2023/08/08 12:26:03;;;;;;;5.57;3.40;;;19.10;99.90;;;;;;5081885;28;21169;-68
2023/08/08 12:28:29;;;;;;;8.00;3.50;;;19.10;99.90;;;;;;5082163;28;20446;-68
2023/08/08 12:30:55;;;;;;;6.17;3.60;;;19.20;99.90;;;;;;5070726;28;20898;-68
2023/08/08 12:33:20;;;;;;;4.83;3.10;;;19.20;99.90;;;;;;5079545;28;20181;-68
2023/08/08 12:35:47;;;;;;;6.33;3.40;;;19.20;99.90;;;;;;5077269;28;20426;-68
2023/08/08 12:38:14;;;;;;;6.70;4.40;;;19.30;99.90;;;;;;5082166;28;20282;-68
2023/08/08 12:40:39;;;;;;;4.37;3.40;;;19.30;99.90;;;;;;5081316;28;20479;-68